Flight Number: EUR1175 Duration: 2:20
Departure: Madrid / Barajas (LEMD) at 08:30 Distance: 955 Nm
Arrival: Tenerife Norte (GCXO) at 10:50 Equipment: A321

Weather Information
Madrid / Barajas, Spain (LEMD) 40-27N 003-33W 582M May 23, 2018 - 08:00 PM EDT / 2018.05.24 0000 UTC
Wind: Variable at 2 MPH (2 KT):0
Visibility: greater than 7 mile(s):0 Temperature: 60 F (16 C) Dew Point: 57 F (14 C) Relative Humidity: 87% Pressure (altimeter): 30.00 in. Hg (1016 hPa)
ob: LEMD 240000Z VRB02KT CAVOK 16/14 Q1016 NOSIG cycle: 0
Sunrise: 04:53 Sunset: 19:28 (UTC)

Tenerife / Los Rodeos, Spain (GCXO) 28-28N 016-19W 617M May 23, 2018 - 08:00 PM EDT / 2018.05.24 0000 UTC
Wind: from the WNW (300 degrees) at 16 MPH (14 KT):0
Visibility: greater than 7 mile(s):0
Sky conditions: mostly clear Temperature: 53 F (12 C) Dew Point: 51 F (11 C) Relative Humidity: 93% Pressure (altimeter): 30.12 in. Hg (1020 hPa)
ob: GCXO 240000Z AUTO 30014KT 9999 FEW013/// 12/11 Q1020 cycle: 0
Sunrise: 06:13 Sunset: 19:51 (UTC)

TAF:2018/05/23 21:27 TAF GCXO 232000Z 2321/2421 32016KT 9999 BKN017 TX20/2414Z TN12/2405Z PROB30 TEMPO 2321/2409 3500 DZRA BCFG BKN010

Previous Pireps for this route
Date Aircraft Flight time Fuel used Landing rate On time
2012-10-28A32102.5416304-310No
2013-06-05A32102.5116238-344No
2013-10-29B7372.20200000No
2014-06-11A32102.2814963-193Yes
2014-07-15A3212.4194480No
2014-07-19A32102.3615014-185Yes
2014-10-12A3212.20170000No
2015-01-06A3212.53221550No
(pireps marked green are flown by you)

Route map